Time,TemperatureF,DewpointF,PressureIn,WindDirection,WindDirectionDegrees,WindSpeedMPH,WindSpeedGustMPH,Humidity,HourlyPrecipIn,Conditions,Clouds,dailyrainin,SoftwareType,DateUTC
2013-04-09 00:04:00,65.0,54.6,30.03,South,175,5.0,7.0,69,0.00,,,0.00,Wunderground PWS Mod,2013-04-09 04:04:00,
2013-04-09 00:09:00,64.8,54.8,30.03,SSW,207,7.0,7.0,70,0.00,,,0.00,Wunderground PWS Mod,2013-04-09 04:09:00,
2013-04-09 00:14:00,64.7,54.7,30.02,South,181,4.0,7.0,70,0.00,,,0.00,Wunderground PWS Mod,2013-04-09 04:14:00,
2013-04-09 00:24:00,64.5,54.9,30.02,SSE,156,7.0,7.0,71,0.00,,,0.00,Wunderground PWS Mod,2013-04-09 04:24:00,
2013-04-09 00:29:00,64.3,54.7,30.02,SSW,198,5.0,7.0,71,0.00,,,0.00,Wunderground PWS Mod,2013-04-09 04:29:00,
2013-04-09 00:39:00,64.0,54.8,30.02,South,173,3.0,7.0,72,0.00,,,0.00,Wunderground PWS Mod,2013-04-09 04:39:00,
2013-04-09 00:49:00,63.7,54.9,30.02,SSW,192,5.0,7.0,73,0.00,,,0.00,Wunderground PWS Mod,2013-04-09 04:49:00,
2013-04-09 00:59:00,63.5,54.7,30.02,South,188,3.0,7.0,73,0.00,,,0.00,Wunderground PWS Mod,2013-04-09 04:59:00,
2013-04-09 01:04:00,63.5,55.1,30.02,SSW,213,6.0,7.0,74,0.00,,,0.00,Wunderground PWS Mod,2013-04-09 05:04:00,
2013-04-09 01:14:00,63.4,55.0,30.02,SSW,207,3.0,10.0,74,0.00,,,0.00,Wunderground PWS Mod,2013-04-09 05:14:00,
2013-04-09 01:24:00,63.4,54.6,30.02,SW,215,1.0,10.0,73,0.00,,,0.00,Wunderground PWS Mod,2013-04-09 05:24:00,
2013-04-09 01:34:00,63.2,54.4,30.02,South,182,0.0,10.0,73,0.00,,,0.00,Wunderground PWS Mod,2013-04-09 05:34:00,
2013-04-09 01:39:00,63.1,54.7,30.02,South,178,1.0,10.0,74,0.00,,,0.00,Wunderground PWS Mod,2013-04-09 05:39:00,
2013-04-09 01:49:00,63.1,54.7,30.02,South,187,1.0,10.0,74,0.00,,,0.00,Wunderground PWS Mod,2013-04-09 05:49:00,
2013-04-09 01:59:00,62.6,54.6,30.02,SSW,198,0.0,7.0,75,0.00,,,0.00,Wunderground PWS Mod,2013-04-09 05:59:00,
2013-04-09 02:14:00,62.1,54.1,30.03,SSW,194,0.0,7.0,75,0.00,,,0.00,Wunderground PWS Mod,2013-04-09 06:14:00,
2013-04-09 02:24:00,62.0,54.0,30.03,South,188,0.0,7.0,75,0.00,,,0.00,Wunderground PWS Mod,2013-04-09 06:24:00,
2013-04-09 02:34:00,61.5,53.9,30.03,South,189,0.0,7.0,76,0.00,,,0.00,Wunderground PWS Mod,2013-04-09 06:34:00,
2013-04-09 02:44:00,61.0,53.7,30.02,South,189,1.0,7.0,77,0.00,,,0.00,Wunderground PWS Mod,2013-04-09 06:44:00,
2013-04-09 02:49:00,60.7,53.4,30.02,South,189,0.0,7.0,77,0.00,,,0.00,Wunderground PWS Mod,2013-04-09 06:49:00,
2013-04-09 02:59:00,60.1,53.2,30.02,South,189,2.0,7.0,78,0.00,,,0.00,Wunderground PWS Mod,2013-04-09 06:59:00,
2013-04-09 03:04:00,59.6,53.1,30.02,South,189,0.0,7.0,79,0.00,,,0.00,Wunderground PWS Mod,2013-04-09 07:04:00,
2013-04-09 03:14:00,59.3,53.5,30.02,South,189,3.0,7.0,81,0.00,,,0.00,Wunderground PWS Mod,2013-04-09 07:14:00,
2013-04-09 03:24:00,58.9,53.4,30.02,South,189,0.0,7.0,82,0.00,,,0.00,Wunderground PWS Mod,2013-04-09 07:24:00,
2013-04-09 03:29:00,58.7,53.2,30.03,South,189,0.0,7.0,82,0.00,,,0.00,Wunderground PWS Mod,2013-04-09 07:29:00,
2013-04-09 03:39:00,58.4,53.3,30.03,South,189,0.0,7.0,83,0.00,,,0.00,Wunderground PWS Mod,2013-04-09 07:39:00,
2013-04-09 03:49:00,58.3,53.5,30.03,South,189,0.0,7.0,84,0.00,,,0.00,Wunderground PWS Mod,2013-04-09 07:49:00,
2013-04-09 03:59:00,57.8,53.3,30.03,South,189,0.0,7.0,85,0.00,,,0.00,Wunderground PWS Mod,2013-04-09 07:59:00,
2013-04-09 04:09:00,57.5,53.0,30.03,South,189,0.0,7.0,85,0.00,,,0.00,Wunderground PWS Mod,2013-04-09 08:09:00,
2013-04-09 04:14:00,57.3,53.1,30.04,South,189,0.0,7.0,86,0.00,,,0.00,Wunderground PWS Mod,2013-04-09 08:14:00,
2013-04-09 04:24:00,57.0,53.2,30.04,South,189,0.0,7.0,87,0.00,,,0.00,Wunderground PWS Mod,2013-04-09 08:24:00,
2013-04-09 04:34:00,56.7,52.9,30.04,South,189,0.0,7.0,87,0.00,,,0.00,Wunderground PWS Mod,2013-04-09 08:34:00,
2013-04-09 04:44:00,56.5,53.0,30.04,South,189,0.0,7.0,88,0.00,,,0.00,Wunderground PWS Mod,2013-04-09 08:44:00,
2013-04-09 04:49:00,56.3,52.8,30.04,South,189,0.0,7.0,88,0.00,,,0.00,Wunderground PWS Mod,2013-04-09 08:49:00,
2013-04-09 04:59:00,55.9,52.4,30.05,South,189,0.0,7.0,88,0.00,,,0.00,Wunderground PWS Mod,2013-04-09 08:59:00,
2013-04-09 05:04:00,55.7,52.8,30.05,South,189,0.0,7.0,90,0.00,,,0.00,Wunderground PWS Mod,2013-04-09 09:04:00,
2013-04-09 05:14:00,56.2,54.2,30.05,South,189,0.0,7.0,93,0.00,,,0.00,Wunderground PWS Mod,2013-04-09 09:14:00,
2013-04-09 05:19:00,56.3,54.3,30.05,South,189,0.0,7.0,93,0.00,,,0.00,Wunderground PWS Mod,2013-04-09 09:19:00,
2013-04-09 05:24:00,56.3,54.3,30.05,South,189,0.0,7.0,93,0.00,,,0.00,Wunderground PWS Mod,2013-04-09 09:24:00,
2013-04-09 05:34:00,55.9,53.9,30.05,South,189,0.0,7.0,93,0.00,,,0.00,Wunderground PWS Mod,2013-04-09 09:34:00,
2013-04-09 05:44:00,55.7,53.7,30.05,South,189,0.0,7.0,93,0.00,,,0.00,Wunderground PWS Mod,2013-04-09 09:44:00,
2013-04-09 05:49:00,55.7,54.0,30.05,South,189,0.0,7.0,94,0.00,,,0.00,Wunderground PWS Mod,2013-04-09 09:49:00,
2013-04-09 05:59:00,55.3,53.6,30.07,South,189,0.0,7.0,94,0.00,,,0.00,Wunderground PWS Mod,2013-04-09 09:59:00,
2013-04-09 06:09:00,55.4,54.0,30.07,South,189,1.0,7.0,95,0.00,,,0.00,Wunderground PWS Mod,2013-04-09 10:09:00,
2013-04-09 06:19:00,55.6,54.2,30.07,South,189,0.0,7.0,95,0.00,,,0.00,Wunderground PWS Mod,2013-04-09 10:19:00,
2013-04-09 06:29:00,55.1,53.7,30.07,South,189,0.0,7.0,95,0.00,,,0.00,Wunderground PWS Mod,2013-04-09 10:29:00,
2013-04-09 06:49:00,54.2,52.8,30.08,South,189,0.0,7.0,95,0.00,,,0.00,Wunderground PWS Mod,2013-04-09 10:49:00,
2013-04-09 06:59:00,53.8,52.4,30.09,South,189,0.0,7.0,95,0.00,,,0.00,Wunderground PWS Mod,2013-04-09 10:59:00,
2013-04-09 07:04:00,53.6,52.2,30.09,South,189,0.0,7.0,95,0.00,,,0.00,Wunderground PWS Mod,2013-04-09 11:04:00,
2013-04-09 07:09:00,53.5,52.1,30.09,South,189,0.0,7.0,95,0.00,,,0.00,Wunderground PWS Mod,2013-04-09 11:09:00,
2013-04-09 07:19:00,53.5,52.1,30.10,South,189,0.0,7.0,95,0.00,,,0.00,Wunderground PWS Mod,2013-04-09 11:19:00,
2013-04-09 07:29:00,53.9,52.8,30.10,South,189,0.0,7.0,96,0.00,,,0.00,Wunderground PWS Mod,2013-04-09 11:29:00,
2013-04-09 07:39:00,54.5,53.7,30.10,South,189,0.0,7.0,97,0.00,,,0.00,Wunderground PWS Mod,2013-04-09 11:39:00,
2013-04-09 07:49:00,55.0,54.2,30.10,South,189,0.0,7.0,97,0.00,,,0.00,Wunderground PWS Mod,2013-04-09 11:49:00,
2013-04-09 07:54:00,55.1,54.3,30.10,South,189,0.0,7.0,97,0.00,,,0.00,Wunderground PWS Mod,2013-04-09 11:54:00,
2013-04-09 08:04:00,56.3,55.7,30.10,South,189,0.0,7.0,98,0.00,,,0.00,Wunderground PWS Mod,2013-04-09 12:04:00,
2013-04-09 08:09:00,56.9,56.3,30.10,South,189,3.0,7.0,98,0.00,,,0.00,Wunderground PWS Mod,2013-04-09 12:09:00,
2013-04-09 08:19:00,57.8,57.2,30.11,South,189,2.0,7.0,98,0.00,,,0.00,Wunderground PWS Mod,2013-04-09 12:19:00,
2013-04-09 08:24:00,58.3,57.7,30.11,SSW,199,4.0,7.0,98,0.00,,,0.00,Wunderground PWS Mod,2013-04-09 12:24:00,
2013-04-09 08:34:00,59.5,58.4,30.11,SSW,209,1.0,7.0,96,0.00,,,0.00,Wunderground PWS Mod,2013-04-09 12:34:00,
2013-04-09 08:44:00,60.7,58.4,30.11,SW,217,1.0,7.0,92,0.00,,,0.00,Wunderground PWS Mod,2013-04-09 12:44:00,
2013-04-09 08:54:00,61.8,57.9,30.11,SW,217,2.0,7.0,87,0.00,,,0.00,Wunderground PWS Mod,2013-04-09 12:54:00,
2013-04-09 08:59:00,62.3,57.7,30.11,WSW,251,3.0,7.0,85,0.00,,,0.00,Wunderground PWS Mod,2013-04-09 12:59:00,
2013-04-09 09:09:00,63.4,57.8,30.11,West,264,5.0,7.0,82,0.00,,,0.00,Wunderground PWS Mod,2013-04-09 13:09:00,
2013-04-09 09:14:00,63.7,57.8,30.11,WSW,239,2.0,7.0,81,0.00,,,0.00,Wunderground PWS Mod,2013-04-09 13:14:00,
2013-04-09 09:24:00,64.8,57.8,30.11,SW,223,2.0,7.0,78,0.00,,,0.00,Wunderground PWS Mod,2013-04-09 13:24:00,
2013-04-09 09:29:00,65.5,58.8,30.12,SW,223,4.0,7.0,79,0.00,,,0.00,Wunderground PWS Mod,2013-04-09 13:29:00,
2013-04-09 09:39:00,66.3,57.8,30.12,WSW,257,10.0,10.0,74,0.00,,,0.00,Wunderground PWS Mod,2013-04-09 13:39:00,
2013-04-09 09:49:00,66.8,57.5,30.12,WSW,244,4.0,10.0,72,0.00,,,0.00,Wunderground PWS Mod,2013-04-09 13:49:00,
2013-04-09 09:54:00,67.1,57.8,30.12,West,266,3.0,10.0,72,0.00,,,0.00,Wunderground PWS Mod,2013-04-09 13:54:00,
2013-04-09 10:04:00,68.1,58.7,30.12,West,263,5.0,7.0,72,0.00,,,0.00,Wunderground PWS Mod,2013-04-09 14:04:00,
2013-04-09 10:14:00,68.6,58.0,30.12,West,265,1.0,7.0,69,0.00,,,0.00,Wunderground PWS Mod,2013-04-09 14:14:00,
2013-04-09 10:29:00,70.1,58.6,30.12,WSW,253,3.0,7.0,67,0.00,,,0.00,Wunderground PWS Mod,2013-04-09 14:29:00,
2013-04-09 10:39:00,70.4,58.1,30.12,West,268,2.0,7.0,65,0.00,,,0.00,Wunderground PWS Mod,2013-04-09 14:39:00,
2013-04-09 10:49:00,70.9,58.5,30.12,SW,236,2.0,7.0,65,0.00,,,0.00,Wunderground PWS Mod,2013-04-09 14:49:00,
2013-04-09 10:59:00,71.6,58.3,30.12,SW,232,2.0,7.0,63,0.00,,,0.00,Wunderground PWS Mod,2013-04-09 14:59:00,
2013-04-09 11:04:00,72.3,59.0,30.12,SW,217,3.0,7.0,63,0.00,,,0.00,Wunderground PWS Mod,2013-04-09 15:04:00,
2013-04-09 11:14:00,72.8,59.5,30.12,SSW,213,3.0,7.0,63,0.00,,,0.00,Wunderground PWS Mod,2013-04-09 15:14:00,
2013-04-09 11:24:00,73.5,60.1,30.12,SW,218,0.0,7.0,63,0.00,,,0.00,Wunderground PWS Mod,2013-04-09 15:24:00,
2013-04-09 11:29:00,73.9,59.6,30.11,South,184,2.0,7.0,61,0.00,,,0.00,Wunderground PWS Mod,2013-04-09 15:29:00,
2013-04-09 11:39:00,74.2,59.4,30.11,SW,228,0.0,7.0,60,0.00,,,0.00,Wunderground PWS Mod,2013-04-09 15:39:00,
2013-04-09 11:44:00,74.9,60.5,30.11,SSW,206,3.0,7.0,61,0.00,,,0.00,Wunderground PWS Mod,2013-04-09 15:44:00,
2013-04-09 11:54:00,75.3,60.5,30.11,SSW,194,5.0,7.0,60,0.00,,,0.00,Wunderground PWS Mod,2013-04-09 15:54:00,
2013-04-09 12:04:00,76.0,59.7,30.11,South,188,1.0,7.0,57,0.00,,,0.00,Wunderground PWS Mod,2013-04-09 16:04:00,
2013-04-09 12:14:00,76.7,58.8,30.11,SW,217,2.0,7.0,54,0.00,,,0.00,Wunderground PWS Mod,2013-04-09 16:14:00,
2013-04-09 12:29:00,77.6,61.2,30.09,South,169,2.0,7.0,57,0.00,,,0.00,Wunderground PWS Mod,2013-04-09 16:29:00,
2013-04-09 12:34:00,77.6,59.1,30.09,SSW,205,4.0,7.0,53,0.00,,,0.00,Wunderground PWS Mod,2013-04-09 16:34:00,
2013-04-09 12:39:00,77.9,59.4,30.09,WSW,248,7.0,7.0,53,0.00,,,0.00,Wunderground PWS Mod,2013-04-09 16:39:00,
2013-04-09 12:49:00,78.5,59.9,30.09,West,272,7.0,7.0,53,0.00,,,0.00,Wunderground PWS Mod,2013-04-09 16:49:00,
2013-04-09 12:54:00,78.3,57.6,30.09,West,271,0.0,7.0,49,0.00,,,0.00,Wunderground PWS Mod,2013-04-09 16:54:00,
2013-04-09 12:59:00,78.6,59.5,30.09,West,269,4.0,7.0,52,0.00,,,0.00,Wunderground PWS Mod,2013-04-09 16:59:00,
2013-04-09 13:04:00,79.0,58.2,30.09,SW,215,5.0,7.0,49,0.00,,,0.00,Wunderground PWS Mod,2013-04-09 17:04:00,
2013-04-09 13:14:00,78.6,57.8,30.08,SW,214,2.0,7.0,49,0.00,,,0.00,Wunderground PWS Mod,2013-04-09 17:14:00,
2013-04-09 13:29:00,77.9,58.9,30.08,SSW,195,3.0,7.0,52,0.00,,,0.00,Wunderground PWS Mod,2013-04-09 17:29:00,
2013-04-09 13:34:00,78.3,58.1,30.08,SW,225,3.0,7.0,50,0.00,,,0.00,Wunderground PWS Mod,2013-04-09 17:34:00,
2013-04-09 13:44:00,78.8,57.4,30.07,SSW,211,1.0,7.0,48,0.00,,,0.00,Wunderground PWS Mod,2013-04-09 17:44:00,
2013-04-09 13:50:00,79.6,58.8,30.07,SW,214,3.0,7.0,49,0.00,,,0.00,Wunderground PWS Mod,2013-04-09 17:50:00,
2013-04-09 14:00:00,79.8,57.8,30.06,SSW,204,5.0,7.0,47,0.00,,,0.00,Wunderground PWS Mod,2013-04-09 18:00:00,
2013-04-09 14:05:00,79.0,59.3,30.06,WSW,252,2.0,7.0,51,0.00,,,0.00,Wunderground PWS Mod,2013-04-09 18:05:00,
2013-04-09 14:15:00,79.6,58.2,30.06,SW,219,3.0,7.0,48,0.00,,,0.00,Wunderground PWS Mod,2013-04-09 18:15:00,
2013-04-09 14:25:00,80.3,58.8,30.06,SW,222,4.0,7.0,48,0.00,,,0.00,Wunderground PWS Mod,2013-04-09 18:25:00,
2013-04-09 14:35:00,79.2,59.0,30.06,South,189,3.0,7.0,50,0.00,,,0.00,Wunderground PWS Mod,2013-04-09 18:35:00,
2013-04-09 14:45:00,80.1,58.0,30.05,West,262,4.0,7.0,47,0.00,,,0.00,Wunderground PWS Mod,2013-04-09 18:45:00,
2013-04-09 14:50:00,80.7,58.0,30.05,SW,219,10.0,10.0,46,0.00,,,0.00,Wunderground PWS Mod,2013-04-09 18:50:00,
2013-04-09 15:00:00,80.7,58.6,30.05,WSW,246,6.0,7.0,47,0.00,,,0.00,Wunderground PWS Mod,2013-04-09 19:00:00,
2013-04-09 15:05:00,80.7,58.6,30.05,South,169,3.0,7.0,47,0.00,,,0.00,Wunderground PWS Mod,2013-04-09 19:05:00,
2013-04-09 15:15:00,81.2,57.8,30.04,SSW,206,4.0,7.0,45,0.00,,,0.00,Wunderground PWS Mod,2013-04-09 19:15:00,
2013-04-09 15:25:00,80.1,57.5,30.04,SSE,165,4.0,7.0,46,0.00,,,0.00,Wunderground PWS Mod,2013-04-09 19:25:00,
2013-04-09 15:35:00,80.5,59.6,30.04,South,190,7.0,7.0,49,0.00,,,0.00,Wunderground PWS Mod,2013-04-09 19:35:00,
2013-04-09 15:45:00,80.9,57.6,30.03,SW,236,1.0,7.0,45,0.00,,,0.00,Wunderground PWS Mod,2013-04-09 19:45:00,
2013-04-09 15:50:00,80.9,58.2,30.03,SSW,207,2.0,7.0,46,0.00,,,0.00,Wunderground PWS Mod,2013-04-09 19:50:00,
2013-04-09 16:00:00,80.7,58.0,30.03,South,169,3.0,7.0,46,0.00,,,0.00,Wunderground PWS Mod,2013-04-09 20:00:00,
2013-04-09 16:15:00,80.5,57.2,30.02,SSW,198,6.0,7.0,45,0.00,,,0.00,Wunderground PWS Mod,2013-04-09 20:15:00,
2013-04-09 16:25:00,81.2,57.8,30.02,SSE,159,6.0,7.0,45,0.00,,,0.00,Wunderground PWS Mod,2013-04-09 20:25:00,
2013-04-09 16:30:00,81.2,58.5,30.02,SSW,202,4.0,7.0,46,0.00,,,0.00,Wunderground PWS Mod,2013-04-09 20:30:00,
2013-04-09 16:40:00,82.0,57.3,30.02,SW,223,6.0,10.0,43,0.00,,,0.00,Wunderground PWS Mod,2013-04-09 20:40:00,
2013-04-09 16:50:00,82.2,56.2,30.02,WSW,240,10.0,10.0,41,0.00,,,0.00,Wunderground PWS Mod,2013-04-09 20:50:00,
2013-04-09 16:55:00,81.8,56.5,30.02,SW,234,6.0,10.0,42,0.00,,,0.00,Wunderground PWS Mod,2013-04-09 20:55:00,
2013-04-09 17:10:00,80.9,56.3,30.02,West,267,4.0,7.0,43,0.00,,,0.00,Wunderground PWS Mod,2013-04-09 21:10:00,
2013-04-09 17:15:00,80.1,56.2,30.02,SW,230,6.0,7.0,44,0.00,,,0.00,Wunderground PWS Mod,2013-04-09 21:15:00,
2013-04-09 17:25:00,80.3,56.4,30.02,SSW,209,9.0,11.0,44,0.00,,,0.00,Wunderground PWS Mod,2013-04-09 21:25:00,
2013-04-09 17:40:00,79.8,56.6,30.02,SW,214,4.0,11.0,45,0.00,,,0.00,Wunderground PWS Mod,2013-04-09 21:40:00,
2013-04-09 17:50:00,80.9,57.6,30.02,WSW,242,5.0,11.0,45,0.00,,,0.00,Wunderground PWS Mod,2013-04-09 21:50:00,
2013-04-09 17:59:00,79.8,57.2,30.02,SW,221,5.0,7.0,46,0.00,,,0.00,Wunderground PWS Mod,2013-04-09 21:59:00,
2013-04-09 18:05:00,79.4,56.8,30.02,SW,215,6.0,7.0,46,0.00,,,0.00,Wunderground PWS Mod,2013-04-09 22:05:00,
2013-04-09 18:15:00,80.3,57.6,30.02,SSW,199,6.0,7.0,46,0.00,,,0.00,Wunderground PWS Mod,2013-04-09 22:15:00,
2013-04-09 18:25:00,80.3,55.8,30.02,SW,233,6.0,7.0,43,0.00,,,0.00,Wunderground PWS Mod,2013-04-09 22:25:00,
2013-04-09 18:34:00,79.8,55.9,30.02,SW,229,11.0,11.0,44,0.00,,,0.00,Wunderground PWS Mod,2013-04-09 22:34:00,
2013-04-09 18:40:00,79.2,56.0,30.02,SW,225,4.0,11.0,45,0.00,,,0.00,Wunderground PWS Mod,2013-04-09 22:40:00,
2013-04-09 18:45:00,79.0,55.8,30.02,WSW,248,5.0,11.0,45,0.00,,,0.00,Wunderground PWS Mod,2013-04-09 22:45:00,
2013-04-09 18:55:00,78.6,56.1,30.02,SSW,200,4.0,11.0,46,0.00,,,0.00,Wunderground PWS Mod,2013-04-09 22:55:00,
2013-04-09 19:05:00,78.1,56.2,30.02,WSW,240,4.0,7.0,47,0.00,,,0.00,Wunderground PWS Mod,2013-04-09 23:05:00,
2013-04-09 19:14:00,77.6,56.4,30.02,WSW,238,3.0,7.0,48,0.00,,,0.00,Wunderground PWS Mod,2013-04-09 23:14:00,
2013-04-09 19:20:00,77.0,55.8,30.02,SSW,213,3.0,7.0,48,0.00,,,0.00,Wunderground PWS Mod,2013-04-09 23:20:00,
2013-04-09 19:30:00,75.8,55.3,30.02,SSW,213,5.0,7.0,49,0.00,,,0.00,Wunderground PWS Mod,2013-04-09 23:30:00,
2013-04-09 19:39:00,75.1,55.7,30.02,SW,221,2.0,7.0,51,0.00,,,0.00,Wunderground PWS Mod,2013-04-09 23:39:00,
2013-04-09 19:49:00,73.5,55.8,30.02,SW,221,1.0,7.0,54,0.00,,,0.00,Wunderground PWS Mod,2013-04-09 23:49:00,
2013-04-09 19:55:00,72.7,55.6,30.02,SW,221,0.0,7.0,55,0.00,,,0.00,Wunderground PWS Mod,2013-04-09 23:55:00,
2013-04-09 20:05:00,71.8,55.3,30.03,SW,221,0.0,7.0,56,0.00,,,0.00,Wunderground PWS Mod,2013-04-10 00:05:00,
2013-04-09 20:14:00,70.9,55.4,30.03,SW,221,1.0,7.0,58,0.00,,,0.00,Wunderground PWS Mod,2013-04-10 00:14:00,
2013-04-09 20:24:00,70.3,55.8,30.03,SW,221,2.0,7.0,60,0.00,,,0.00,Wunderground PWS Mod,2013-04-10 00:24:00,
2013-04-09 20:35:00,69.9,55.8,30.03,SW,221,0.0,7.0,61,0.00,,,0.00,Wunderground PWS Mod,2013-04-10 00:35:00,
2013-04-09 20:44:00,69.6,55.6,30.04,SW,221,0.0,7.0,61,0.00,,,0.00,Wunderground PWS Mod,2013-04-10 00:44:00,
2013-04-09 20:54:00,69.3,55.7,30.04,SW,221,0.0,7.0,62,0.00,,,0.00,Wunderground PWS Mod,2013-04-10 00:54:00,
2013-04-09 21:05:00,68.8,55.7,30.04,SW,221,0.0,7.0,63,0.00,,,0.00,Wunderground PWS Mod,2013-04-10 01:05:00,
2013-04-09 21:15:00,68.3,55.2,30.04,SW,221,0.0,7.0,63,0.00,,,0.00,Wunderground PWS Mod,2013-04-10 01:15:00,
2013-04-09 21:24:00,67.6,55.0,30.04,SW,221,0.0,7.0,64,0.00,,,0.00,Wunderground PWS Mod,2013-04-10 01:24:00,
2013-04-09 21:29:00,67.4,55.6,30.05,SW,221,0.0,7.0,66,0.00,,,0.00,Wunderground PWS Mod,2013-04-10 01:29:00,
2013-04-09 21:40:00,66.9,55.6,30.05,SW,221,0.0,7.0,67,0.00,,,0.00,Wunderground PWS Mod,2013-04-10 01:40:00,
2013-04-09 21:50:00,66.6,55.3,30.05,SW,221,0.0,7.0,67,0.00,,,0.00,Wunderground PWS Mod,2013-04-10 01:50:00,
2013-04-09 21:55:00,66.4,55.1,30.05,SW,221,0.0,7.0,67,0.00,,,0.00,Wunderground PWS Mod,2013-04-10 01:55:00,
2013-04-09 22:04:00,66.0,55.1,30.05,SW,221,0.0,7.0,68,0.00,,,0.00,Wunderground PWS Mod,2013-04-10 02:04:00,
2013-04-09 22:14:00,65.5,55.1,30.04,SW,221,0.0,7.0,69,0.00,,,0.00,Wunderground PWS Mod,2013-04-10 02:14:00,
2013-04-09 22:24:00,65.0,55.0,30.04,SW,221,0.0,7.0,70,0.00,,,0.00,Wunderground PWS Mod,2013-04-10 02:24:00,
2013-04-09 22:34:00,64.8,55.2,30.04,SW,221,0.0,7.0,71,0.00,,,0.00,Wunderground PWS Mod,2013-04-10 02:34:00,
2013-04-09 22:40:00,64.7,55.1,30.04,SW,221,0.0,7.0,71,0.00,,,0.00,Wunderground PWS Mod,2013-04-10 02:40:00,
2013-04-09 22:49:00,64.3,55.1,30.03,SW,221,0.0,7.0,72,0.00,,,0.00,Wunderground PWS Mod,2013-04-10 02:49:00,
2013-04-09 22:59:00,64.5,55.3,30.03,SW,221,0.0,7.0,72,0.00,,,0.00,Wunderground PWS Mod,2013-04-10 02:59:00,
2013-04-09 23:09:00,64.7,55.5,30.03,SW,221,0.0,7.0,72,0.00,,,0.00,Wunderground PWS Mod,2013-04-10 03:09:00,
2013-04-09 23:15:00,64.8,55.6,30.02,SW,221,0.0,7.0,72,0.00,,,0.00,Wunderground PWS Mod,2013-04-10 03:15:00,
2013-04-09 23:20:00,64.7,55.1,30.02,SW,221,0.0,7.0,71,0.00,,,0.00,Wunderground PWS Mod,2013-04-10 03:20:00,
2013-04-09 23:30:00,64.3,55.1,30.01,SW,221,0.0,7.0,72,0.00,,,0.00,Wunderground PWS Mod,2013-04-10 03:30:00,
2013-04-09 23:39:00,64.2,55.4,30.01,SW,221,0.0,7.0,73,0.00,,,0.00,Wunderground PWS Mod,2013-04-10 03:39:00,
2013-04-09 23:49:00,64.0,55.2,30.01,SW,221,0.0,7.0,73,0.00,,,0.00,Wunderground PWS Mod,2013-04-10 03:49:00,
2013-04-09 23:55:00,63.9,55.4,30.01,SW,221,0.0,7.0,74,0.00,,,0.00,Wunderground PWS Mod,2013-04-10 03:55:00,